Time;durP1;ratioP1;P1;durP2;ratioP2;P2;SDS_P1;SDS_P2;PMS_P1;PMS_P2;Temp;Humidity;BMP_temperature;BMP_pressure;BME280_temperature;BME280_humidity;BME280_pressure;Samples;Min_cycle;Max_cycle;Signal;HPM_P1;HPM_P2
2023/09/10 00:00:29;;;;;;;9.82;7.45;;;20.60;99.90;;;;;;5074316;28;20035;-84
2023/09/10 00:02:55;;;;;;;10.52;7.38;;;20.60;99.90;;;;;;5073494;28;20035;-84
2023/09/10 00:05:21;;;;;;;11.20;7.50;;;20.60;99.90;;;;;;5074893;28;20028;-84
2023/09/10 00:07:46;;;;;;;10.48;8.05;;;20.60;99.90;;;;;;5056023;28;20028;-85
2023/09/10 00:10:12;;;;;;;10.65;7.50;;;20.60;99.90;;;;;;5073687;28;20054;-83
2023/09/10 00:12:38;;;;;;;11.18;7.97;;;20.60;99.90;;;;;;5056344;28;20025;-84
2023/09/10 00:15:04;;;;;;;12.05;8.00;;;20.60;99.90;;;;;;5056305;28;20074;-84
2023/09/10 00:17:30;;;;;;;11.23;7.60;;;20.40;99.90;;;;;;5056303;28;20056;-84
2023/09/10 00:19:56;;;;;;;11.63;7.32;;;20.30;99.90;;;;;;5056090;28;20067;-84
2023/09/10 00:22:21;;;;;;;10.90;8.32;;;20.30;99.90;;;;;;5074357;28;20025;-84
2023/09/10 00:24:47;;;;;;;11.10;7.80;;;20.20;99.90;;;;;;5056361;28;20050;-82
2023/09/10 00:27:13;;;;;;;11.82;7.60;;;20.20;99.90;;;;;;5056683;28;20024;-84
2023/09/10 00:29:39;;;;;;;10.70;7.97;;;20.20;99.90;;;;;;5074162;28;20024;-85
2023/09/10 00:32:05;;;;;;;11.57;7.43;;;20.10;99.90;;;;;;5073890;28;20427;-85
2023/09/10 00:34:32;;;;;;;11.82;8.00;;;20.00;99.90;;;;;;5056693;28;20021;-85
2023/09/10 00:36:59;;;;;;;11.32;7.78;;;20.10;99.90;;;;;;5055844;28;20024;-85
2023/09/10 00:39:24;;;;;;;12.80;8.02;;;20.00;99.90;;;;;;5056258;28;20421;-86
2023/09/10 00:41:53;;;;;;;12.10;7.63;;;20.00;99.90;;;;;;5056233;28;20042;-85
2023/09/10 00:44:20;;;;;;;11.80;7.43;;;20.00;99.90;;;;;;5056417;28;20024;-86
2023/09/10 00:46:45;;;;;;;9.55;6.88;;;20.00;99.90;;;;;;5055506;28;20046;-84
2023/09/10 00:49:12;;;;;;;10.52;7.22;;;19.90;99.90;;;;;;5055688;28;20048;-84
2023/09/10 00:51:38;;;;;;;11.27;7.72;;;19.90;99.90;;;;;;5074008;28;20029;-84
2023/09/10 00:54:04;;;;;;;9.68;7.10;;;19.90;99.90;;;;;;5073603;28;20337;-86
2023/09/10 00:56:29;;;;;;;10.52;7.10;;;19.90;99.90;;;;;;5073890;28;20423;-85
2023/09/10 00:58:55;;;;;;;11.32;7.50;;;20.00;99.90;;;;;;5073486;28;20059;-85
2023/09/10 01:01:22;;;;;;;11.57;7.63;;;20.00;99.90;;;;;;5055888;28;20039;-84
2023/09/10 01:03:48;;;;;;;12.88;7.68;;;20.00;99.90;;;;;;5056002;28;20059;-85
2023/09/10 01:06:14;;;;;;;13.07;7.60;;;19.90;99.90;;;;;;5056163;28;20078;-85
2023/09/10 01:08:39;;;;;;;10.20;7.40;;;19.80;99.90;;;;;;5056374;28;20032;-85
2023/09/10 01:11:32;;;;;;;10.25;7.20;;;19.80;99.90;;;;;;5073471;28;20374;-86
2023/09/10 01:14:11;;;;;;;12.75;8.00;;;19.70;99.90;;;;;;5073531;28;20354;-86
2023/09/10 01:17:06;;;;;;;10.52;7.18;;;19.70;99.90;;;;;;5056174;28;20035;-86
2023/09/10 01:19:50;;;;;;;9.80;7.05;;;19.70;99.90;;;;;;5055618;28;20036;-87
2023/09/10 01:22:43;;;;;;;12.82;7.05;;;19.60;99.90;;;;;;5076977;28;20032;-88
2023/09/10 01:25:09;;;;;;;10.73;7.03;;;19.60;99.90;;;;;;5077412;28;20021;-88
2023/09/10 01:27:34;;;;;;;9.85;6.80;;;19.60;99.90;;;;;;5060021;28;20035;-86
2023/09/10 01:30:00;;;;;;;11.35;7.20;;;19.60;99.90;;;;;;5059311;28;20037;-87
2023/09/10 01:32:43;;;;;;;11.98;7.15;;;19.60;99.90;;;;;;5077894;28;20516;-86
2023/09/10 01:35:24;;;;;;;10.35;7.65;;;19.50;99.90;;;;;;5076839;28;20021;-87
2023/09/10 01:38:02;;;;;;;10.02;7.40;;;19.50;99.90;;;;;;5059271;28;20029;-87
2023/09/10 01:40:34;;;;;;;13.20;7.28;;;19.50;99.90;;;;;;5059550;28;20477;-86
2023/09/10 01:43:05;;;;;;;10.77;7.07;;;19.50;99.90;;;;;;5059136;28;20028;-87
2023/09/10 01:45:36;;;;;;;11.30;6.90;;;19.50;99.90;;;;;;5059889;28;20031;-87
2023/09/10 01:48:02;;;;;;;11.97;7.63;;;19.50;99.90;;;;;;5059390;28;20142;-88
2023/09/10 01:50:29;;;;;;;12.50;7.53;;;19.50;99.90;;;;;;5059081;28;20056;-89
2023/09/10 01:52:57;;;;;;;10.95;6.93;;;19.40;99.90;;;;;;5059224;28;20075;-88
2023/09/10 01:55:23;;;;;;;11.32;7.47;;;19.40;99.90;;;;;;5059076;28;20032;-87
2023/09/10 01:57:48;;;;;;;10.15;6.93;;;19.50;99.90;;;;;;5058782;28;20184;-88
2023/09/10 02:00:14;;;;;;;12.02;7.47;;;19.40;99.90;;;;;;5059311;28;20527;-89
2023/09/10 02:02:40;;;;;;;11.68;7.47;;;19.30;99.90;;;;;;5059353;28;20385;-87
2023/09/10 02:05:06;;;;;;;9.93;7.30;;;19.30;99.90;;;;;;5076508;28;20021;-86
2023/09/10 02:07:32;;;;;;;11.18;8.27;;;19.20;99.90;;;;;;5058850;28;20027;-87
2023/09/10 02:09:58;;;;;;;10.02;7.30;;;19.20;99.90;;;;;;5058340;28;20063;-87
2023/09/10 02:12:24;;;;;;;11.85;8.35;;;19.20;99.90;;;;;;5058698;28;20035;-86
2023/09/10 02:14:50;;;;;;;14.75;8.75;;;19.20;99.90;;;;;;5076465;28;20025;-87
2023/09/10 02:17:16;;;;;;;14.18;7.97;;;19.20;99.90;;;;;;5059049;28;20070;-87
2023/09/10 02:19:41;;;;;;;14.27;7.82;;;19.30;99.90;;;;;;5076424;28;20167;-87
2023/09/10 02:22:07;;;;;;;13.32;9.02;;;19.20;99.90;;;;;;5075912;28;20028;-87
2023/09/10 02:24:33;;;;;;;12.25;9.10;;;19.30;99.90;;;;;;5076648;28;20060;-86
2023/09/10 02:26:58;;;;;;;13.40;8.52;;;19.30;99.90;;;;;;5058289;28;20025;-87
2023/09/10 02:29:24;;;;;;;13.20;8.27;;;19.20;99.90;;;;;;5058804;28;20032;-86
2023/09/10 02:31:49;;;;;;;14.70;8.10;;;19.10;99.90;;;;;;5057964;28;20033;-88
2023/09/10 02:34:15;;;;;;;10.30;8.13;;;19.10;99.90;;;;;;5076082;28;20051;-86
2023/09/10 02:36:40;;;;;;;15.68;8.82;;;19.10;99.90;;;;;;5058434;28;20059;-87
2023/09/10 02:39:06;;;;;;;11.25;7.90;;;19.10;99.90;;;;;;5058279;28;20078;-89
2023/09/10 02:41:32;;;;;;;10.55;7.57;;;19.10;99.90;;;;;;5058662;28;20361;-86
2023/09/10 02:43:57;;;;;;;12.95;7.38;;;19.10;99.90;;;;;;5076185;28;20098;-87
2023/09/10 02:46:25;;;;;;;14.18;8.43;;;19.10;99.90;;;;;;5058606;28;20119;-86
2023/09/10 02:48:50;;;;;;;11.13;7.63;;;19.10;99.90;;;;;;5075769;28;20039;-87
2023/09/10 02:51:16;;;;;;;10.32;7.60;;;19.20;99.90;;;;;;5075999;28;20104;-86
2023/09/10 02:53:42;;;;;;;10.98;7.47;;;19.10;99.90;;;;;;5058508;28;20066;-86
2023/09/10 02:56:07;;;;;;;10.80;7.82;;;19.10;99.90;;;;;;5075397;28;20042;-86
2023/09/10 02:58:33;;;;;;;12.10;6.97;;;19.00;99.90;;;;;;5058292;28;20488;-85
2023/09/10 03:01:05;;;;;;;11.00;7.40;;;18.90;99.90;;;;;;5057722;28;20021;-86
2023/09/10 03:03:34;;;;;;;12.68;7.93;;;18.90;99.90;;;;;;5058068;28;20389;-86
2023/09/10 03:06:00;;;;;;;14.60;7.72;;;18.90;99.90;;;;;;5057521;28;20021;-85
2023/09/10 03:08:26;;;;;;;10.80;7.07;;;18.80;99.90;;;;;;5075663;28;20024;-90
2023/09/10 03:10:52;;;;;;;17.23;8.23;;;18.70;99.90;;;;;;5057678;28;20098;-86
2023/09/10 03:13:17;;;;;;;12.07;7.53;;;18.70;99.90;;;;;;5057541;28;20063;-86
2023/09/10 03:15:49;;;;;;;11.63;7.88;;;18.80;99.90;;;;;;5057825;28;20119;-86
2023/09/10 03:18:15;;;;;;;10.75;7.07;;;18.90;99.90;;;;;;5074911;28;20086;-86
2023/09/10 03:20:40;;;;;;;9.88;7.43;;;18.90;99.90;;;;;;5075109;28;20032;-85
2023/09/10 03:23:06;;;;;;;10.52;7.18;;;18.80;99.90;;;;;;5056753;28;20107;-86
2023/09/10 03:25:36;;;;;;;12.23;6.88;;;18.80;99.90;;;;;;5057399;28;20461;-85
2023/09/10 03:28:02;;;;;;;10.07;7.28;;;18.80;99.90;;;;;;5074780;28;20031;-85
2023/09/10 03:30:28;;;;;;;12.07;7.90;;;18.80;99.90;;;;;;5057435;28;20029;-85
2023/09/10 03:32:53;;;;;;;11.32;7.68;;;18.80;99.90;;;;;;5057706;28;20458;-85
2023/09/10 03:35:19;;;;;;;10.02;6.88;;;18.70;99.90;;;;;;5057283;28;20025;-84
2023/09/10 03:37:45;;;;;;;9.93;7.43;;;18.70;99.90;;;;;;5057241;28;20354;-84
2023/09/10 03:40:11;;;;;;;11.82;7.07;;;18.70;99.90;;;;;;5074045;28;20056;-84
2023/09/10 03:42:36;;;;;;;12.35;7.88;;;18.70;99.90;;;;;;5057617;28;20029;-85
2023/09/10 03:45:03;;;;;;;10.60;6.85;;;18.60;99.90;;;;;;5074537;28;20024;-85
2023/09/10 03:47:29;;;;;;;13.07;7.40;;;18.60;99.90;;;;;;5056991;28;20021;-84
2023/09/10 03:49:54;;;;;;;11.15;6.95;;;18.60;99.90;;;;;;5074288;28;20075;-83
2023/09/10 03:52:21;;;;;;;11.80;7.72;;;18.60;99.90;;;;;;5057252;28;20481;-83
2023/09/10 03:54:47;;;;;;;11.95;7.45;;;18.60;99.90;;;;;;5056406;28;20021;-85
2023/09/10 03:57:14;;;;;;;13.60;7.07;;;18.50;99.90;;;;;;5056488;28;20488;-84
2023/09/10 03:59:40;;;;;;;10.25;7.07;;;18.50;99.90;;;;;;5056837;28;20131;-83
2023/09/10 04:02:06;;;;;;;12.00;7.15;;;18.50;99.90;;;;;;5073966;28;20020;-83
2023/09/10 04:04:32;;;;;;;11.50;7.05;;;18.50;99.90;;;;;;5057005;28;20031;-84
2023/09/10 04:06:58;;;;;;;9.32;7.30;;;18.50;99.90;;;;;;5074167;28;20082;-83
2023/09/10 04:09:24;;;;;;;10.65;7.28;;;18.50;99.90;;;;;;5056431;28;20025;-86
2023/09/10 04:11:50;;;;;;;13.00;8.02;;;18.50;99.90;;;;;;5057398;28;20029;-85
2023/09/10 04:14:16;;;;;;;12.23;7.90;;;18.50;99.90;;;;;;5056138;28;20031;-85
2023/09/10 04:16:41;;;;;;;14.05;8.48;;;18.60;99.90;;;;;;5074388;28;20071;-85
2023/09/10 04:19:07;;;;;;;12.50;8.20;;;18.60;99.90;;;;;;5073981;28;20381;-87
2023/09/10 04:21:34;;;;;;;12.88;8.55;;;18.60;99.90;;;;;;5056646;28;20060;-87
2023/09/10 04:23:59;;;;;;;13.55;8.25;;;18.70;99.90;;;;;;5056761;28;20117;-85
2023/09/10 04:26:25;;;;;;;12.15;8.93;;;18.60;99.90;;;;;;5056622;28;20457;-84
2023/09/10 04:28:51;;;;;;;12.35;8.43;;;18.70;99.90;;;;;;5074349;28;20032;-84
2023/09/10 04:31:17;;;;;;;12.30;8.30;;;18.60;99.90;;;;;;5056211;28;20028;-84
2023/09/10 04:33:43;;;;;;;15.40;8.35;;;18.70;99.90;;;;;;5056796;28;20078;-86
2023/09/10 04:36:09;;;;;;;11.70;7.85;;;18.70;99.90;;;;;;5056358;28;20020;-86
2023/09/10 04:38:35;;;;;;;13.38;7.93;;;18.70;99.90;;;;;;5056378;28;20037;-86
2023/09/10 04:41:01;;;;;;;11.07;7.93;;;18.70;99.90;;;;;;5074275;28;20036;-86
2023/09/10 04:43:26;;;;;;;11.32;7.75;;;18.60;99.90;;;;;;5057042;28;20029;-86
2023/09/10 04:45:52;;;;;;;11.05;8.00;;;18.60;99.90;;;;;;5056788;28;20112;-86
2023/09/10 04:48:17;;;;;;;11.27;7.75;;;18.50;99.90;;;;;;5056210;28;20071;-86
2023/09/10 04:50:44;;;;;;;10.65;7.43;;;18.50;99.90;;;;;;5056352;28;20053;-86
2023/09/10 04:53:10;;;;;;;13.52;8.00;;;18.40;99.90;;;;;;5056199;28;20028;-86
2023/09/10 04:55:36;;;;;;;13.07;8.60;;;18.30;99.90;;;;;;5056973;28;20029;-86
2023/09/10 04:58:02;;;;;;;12.52;8.38;;;18.40;99.90;;;;;;5059970;28;20032;-88
2023/09/10 05:00:28;;;;;;;12.02;8.20;;;18.40;99.90;;;;;;5060634;28;20055;-87
2023/09/10 05:02:53;;;;;;;13.80;8.13;;;18.30;99.90;;;;;;5061007;28;20028;-87
2023/09/10 05:05:19;;;;;;;15.20;8.23;;;18.40;99.90;;;;;;5060447;28;20526;-85
2023/09/10 05:07:48;;;;;;;12.27;8.00;;;18.30;99.90;;;;;;5060155;28;20454;-85
2023/09/10 05:10:14;;;;;;;13.82;8.27;;;18.40;99.90;;;;;;5077382;28;20029;-87
2023/09/10 05:12:40;;;;;;;13.63;8.07;;;18.40;99.90;;;;;;5060191;28;20485;-86
2023/09/10 05:15:06;;;;;;;11.13;7.55;;;18.40;99.90;;;;;;5077557;28;20035;-86
2023/09/10 05:17:32;;;;;;;12.43;7.72;;;18.40;99.90;;;;;;5077854;28;20035;-86
2023/09/10 05:19:57;;;;;;;11.05;8.18;;;18.30;99.90;;;;;;5060318;28;20111;-88
2023/09/10 05:22:23;;;;;;;15.38;7.72;;;18.20;99.90;;;;;;5059410;28;20024;-88
2023/09/10 05:24:48;;;;;;;14.10;7.85;;;18.10;99.90;;;;;;5060108;28;20021;-87
2023/09/10 05:27:14;;;;;;;11.75;8.25;;;18.10;99.90;;;;;;5059299;28;20031;-86
2023/09/10 05:29:39;;;;;;;11.02;7.30;;;18.00;99.90;;;;;;5059740;28;20466;-85
2023/09/10 05:32:05;;;;;;;12.00;8.10;;;18.10;99.90;;;;;;5076487;28;20029;-86
2023/09/10 05:34:31;;;;;;;11.75;7.68;;;18.10;99.90;;;;;;5059704;28;20033;-86
2023/09/10 05:36:56;;;;;;;9.45;7.25;;;18.10;99.90;;;;;;5076770;28;20044;-85
2023/09/10 05:39:22;;;;;;;11.27;7.68;;;18.10;99.90;;;;;;5058734;28;20458;-86
2023/09/10 05:41:47;;;;;;;12.40;7.55;;;18.20;99.90;;;;;;5059451;28;20028;-88
2023/09/10 05:44:13;;;;;;;13.80;7.93;;;18.20;99.90;;;;;;5076393;28;20024;-87
2023/09/10 05:46:38;;;;;;;14.18;8.00;;;18.30;99.90;;;;;;5059679;28;20029;-89
2023/09/10 05:49:04;;;;;;;12.85;7.45;;;18.30;99.90;;;;;;5058496;28;20052;-86
2023/09/10 05:51:30;;;;;;;10.10;7.25;;;18.30;99.90;;;;;;5074851;28;20025;-88
2023/09/10 05:53:55;;;;;;;10.73;7.40;;;18.30;99.90;;;;;;5057424;28;20036;-88
2023/09/10 05:56:21;;;;;;;9.93;7.38;;;18.40;99.90;;;;;;5074435;28;20397;-88
2023/09/10 05:58:46;;;;;;;13.30;7.93;;;18.40;99.90;;;;;;5056987;28;20074;-87
2023/09/10 06:01:12;;;;;;;12.35;7.13;;;18.50;99.90;;;;;;5056489;28;20032;-87
2023/09/10 06:03:38;;;;;;;12.30;7.20;;;18.50;99.90;;;;;;5056722;28;20033;-88
2023/09/10 06:06:04;;;;;;;11.05;7.13;;;18.50;99.90;;;;;;5057240;28;20028;-86
2023/09/10 06:08:30;;;;;;;12.32;8.25;;;18.50;99.90;;;;;;5057484;28;20032;-87
2023/09/10 06:10:56;;;;;;;12.50;7.68;;;18.60;99.90;;;;;;5057565;28;20492;-87
2023/09/10 06:13:21;;;;;;;11.38;7.72;;;18.60;99.90;;;;;;5074950;28;20026;-88
2023/09/10 06:15:47;;;;;;;12.57;7.90;;;18.60;99.90;;;;;;5075587;28;20524;-85
2023/09/10 06:18:13;;;;;;;12.23;7.10;;;18.60;99.90;;;;;;5076978;28;20055;-86
2023/09/10 06:20:39;;;;;;;11.05;7.50;;;18.60;99.90;;;;;;5077490;28;20090;-82
2023/09/10 06:23:04;;;;;;;12.10;7.68;;;18.60;99.90;;;;;;5061262;28;20075;-87
2023/09/10 06:25:30;;;;;;;11.55;7.65;;;18.60;99.90;;;;;;5060058;28;20030;-84
2023/09/10 06:27:56;;;;;;;10.45;7.60;;;18.70;99.90;;;;;;5057288;28;20388;-84
2023/09/10 06:30:21;;;;;;;11.77;8.05;;;18.60;99.90;;;;;;5074646;28;20028;-84
2023/09/10 06:32:50;;;;;;;10.30;7.60;;;18.70;99.90;;;;;;5057909;28;20031;-84
2023/09/10 06:35:16;;;;;;;12.25;7.38;;;18.80;99.90;;;;;;5074531;28;20556;-84
2023/09/10 06:37:42;;;;;;;11.10;6.70;;;18.80;99.90;;;;;;5075120;28;20055;-84
2023/09/10 06:40:09;;;;;;;13.13;7.45;;;18.90;99.90;;;;;;5057194;28;20044;-85
2023/09/10 06:42:34;;;;;;;12.27;7.47;;;18.90;99.90;;;;;;5057524;28;20469;-84
2023/09/10 06:45:00;;;;;;;14.10;7.68;;;18.90;99.90;;;;;;5057583;28;20162;-84
2023/09/10 06:47:27;;;;;;;11.70;6.80;;;19.00;99.90;;;;;;5074857;28;20017;-84
2023/09/10 06:49:52;;;;;;;11.70;7.05;;;19.00;99.90;;;;;;5037856;28;1074627;-84
2023/09/10 06:52:18;;;;;;;11.20;7.38;;;19.00;99.90;;;;;;5057808;28;20036;-83
2023/09/10 06:54:44;;;;;;;13.23;7.63;;;19.00;99.90;;;;;;5075852;28;20032;-83
2023/09/10 06:57:09;;;;;;;10.50;7.38;;;19.10;99.90;;;;;;5075648;28;20028;-85
2023/09/10 06:59:35;;;;;;;10.70;7.15;;;19.10;99.90;;;;;;5058359;28;20028;-83
2023/09/10 07:02:01;;;;;;;11.25;7.18;;;19.10;99.90;;;;;;5075964;28;20377;-84
2023/09/10 07:04:26;;;;;;;10.20;7.32;;;19.20;99.90;;;;;;5075332;28;20021;-84
2023/09/10 07:06:53;;;;;;;10.07;6.85;;;19.20;99.90;;;;;;5075651;28;20492;-84
2023/09/10 07:09:21;;;;;;;10.35;6.70;;;19.20;99.90;;;;;;5074903;28;20035;-84
2023/09/10 07:11:51;;;;;;;11.18;6.85;;;19.30;99.90;;;;;;5075578;28;20105;-84
2023/09/10 07:14:17;;;;;;;11.32;7.47;;;19.30;99.90;;;;;;5057315;28;20024;-84
2023/09/10 07:16:43;;;;;;;11.32;7.43;;;19.30;99.90;;;;;;5057647;28;20104;-84
2023/09/10 07:19:09;;;;;;;10.52;7.20;;;19.40;99.90;;;;;;5074046;28;20025;-87
2023/09/10 07:21:34;;;;;;;10.55;7.32;;;19.40;99.90;;;;;;5075030;28;20048;-84
2023/09/10 07:24:02;;;;;;;10.30;7.22;;;19.40;99.90;;;;;;5057347;28;20377;-84
2023/09/10 07:26:28;;;;;;;9.88;7.10;;;19.40;99.90;;;;;;5074621;28;20343;-84
2023/09/10 07:28:54;;;;;;;15.90;7.38;;;19.50;99.90;;;;;;5057428;28;20029;-84
2023/09/10 07:31:19;;;;;;;12.10;7.20;;;19.50;99.90;;;;;;5074663;28;20031;-85
2023/09/10 07:33:45;;;;;;;11.38;7.00;;;19.60;99.90;;;;;;5057023;28;20048;-84
2023/09/10 07:36:10;;;;;;;14.25;7.63;;;19.60;99.90;;;;;;5056800;28;20036;-85
2023/09/10 07:38:36;;;;;;;10.65;7.38;;;19.60;99.90;;;;;;5056835;28;20040;-85
2023/09/10 07:41:03;;;;;;;11.13;7.00;;;19.70;99.90;;;;;;5057019;28;20041;-84
2023/09/10 07:43:28;;;;;;;10.10;7.22;;;19.70;99.90;;;;;;5056565;28;20028;-84
2023/09/10 07:45:54;;;;;;;10.73;7.07;;;19.70;99.90;;;;;;5075001;28;20074;-84
2023/09/10 07:48:19;;;;;;;9.55;6.90;;;19.80;99.90;;;;;;5056617;28;20496;-83
2023/09/10 07:50:59;;;;;;;9.27;6.97;;;19.80;99.90;;;;;;5036987;28;20053;-84
2023/09/10 07:53:25;;;;;;;9.52;6.80;;;19.90;99.90;;;;;;5033204;28;20034;-84
2023/09/10 07:55:51;;;;;;;11.60;7.05;;;19.90;99.90;;;;;;5033683;28;20068;-84
2023/09/10 07:58:17;;;;;;;11.70;7.45;;;19.90;99.90;;;;;;5033203;28;20040;-84
2023/09/10 08:00:42;;;;;;;11.88;7.03;;;20.00;99.90;;;;;;5034042;28;20118;-84
2023/09/10 08:03:08;;;;;;;10.85;8.00;;;20.10;99.90;;;;;;5043413;28;20021;-84
2023/09/10 08:05:34;;;;;;;9.77;6.88;;;20.10;99.90;;;;;;5046545;28;20108;-90
2023/09/10 08:08:02;;;;;;;9.88;7.40;;;20.10;99.90;;;;;;5032945;28;20112;-85
2023/09/10 08:10:29;;;;;;;12.20;7.15;;;20.10;99.90;;;;;;5033841;28;20029;-85
2023/09/10 08:12:55;;;;;;;8.70;6.63;;;20.20;99.90;;;;;;5041398;28;20051;-84
2023/09/10 08:15:21;;;;;;;10.93;7.05;;;20.20;99.90;;;;;;5043196;28;20652;-84
2023/09/10 08:17:49;;;;;;;9.60;6.82;;;20.30;99.90;;;;;;5032908;28;20032;-84
2023/09/10 08:20:15;;;;;;;11.02;7.15;;;20.30;99.90;;;;;;5048938;28;20025;-87
2023/09/10 08:22:43;;;;;;;11.90;6.97;;;20.40;99.90;;;;;;5041124;28;20393;-88
2023/09/10 08:25:08;;;;;;;11.63;6.60;;;20.40;99.90;;;;;;5053399;28;20075;-88
2023/09/10 08:27:35;;;;;;;9.55;6.85;;;20.40;99.90;;;;;;5052993;28;20025;-85
2023/09/10 08:30:04;;;;;;;9.55;6.90;;;20.40;99.90;;;;;;5052962;28;20021;-84
2023/09/10 08:32:29;;;;;;;9.73;6.30;;;20.50;99.90;;;;;;5032863;28;20091;-85
2023/09/10 08:34:55;;;;;;;7.55;5.82;;;20.50;99.90;;;;;;5033633;28;20033;-84
2023/09/10 08:37:20;;;;;;;15.88;7.25;;;20.60;99.90;;;;;;5033472;28;20463;-82
2023/09/10 08:39:48;;;;;;;9.98;6.72;;;20.60;99.90;;;;;;5033078;28;20029;-83
2023/09/10 08:42:38;;;;;;;10.00;6.40;;;20.60;99.90;;;;;;5032559;28;20549;-91
2023/09/10 08:45:07;;;;;;;9.55;6.80;;;20.70;99.90;;;;;;5043907;28;20056;-85
2023/09/10 08:47:43;;;;;;;11.50;6.35;;;20.70;99.90;;;;;;5052523;28;20059;-84
2023/09/10 08:50:10;;;;;;;8.30;6.15;;;20.70;99.90;;;;;;5033905;28;20053;-85
2023/09/10 08:52:44;;;;;;;10.13;6.22;;;20.80;99.90;;;;;;5033485;28;20034;-82
2023/09/10 08:55:13;;;;;;;9.05;6.63;;;20.80;99.90;;;;;;5033107;28;20025;-83
2023/09/10 08:57:41;;;;;;;9.68;6.43;;;20.80;99.90;;;;;;5032860;28;20049;-82
2023/09/10 09:00:17;;;;;;;11.57;6.53;;;20.90;99.90;;;;;;5033820;28;20021;-83
2023/09/10 09:02:45;;;;;;;8.05;6.28;;;20.90;99.90;;;;;;5039828;28;20054;-85
2023/09/10 09:05:12;;;;;;;8.80;6.13;;;21.00;99.90;;;;;;5045752;28;20033;-84
2023/09/10 09:07:47;;;;;;;9.55;6.53;;;21.10;99.90;;;;;;5036540;28;20029;-82
2023/09/10 09:10:21;;;;;;;10.65;6.40;;;21.10;99.90;;;;;;5032637;28;20382;-87
2023/09/10 09:12:52;;;;;;;8.43;5.68;;;21.20;99.90;;;;;;5033060;28;20485;-83
2023/09/10 09:15:19;;;;;;;7.97;5.67;;;21.20;99.90;;;;;;5033616;28;20044;-83
2023/09/10 09:17:45;;;;;;;9.50;6.22;;;21.30;99.90;;;;;;5032622;28;20259;-83
2023/09/10 09:20:11;;;;;;;9.88;6.93;;;21.30;99.90;;;;;;5032549;28;20424;-86
2023/09/10 09:22:42;;;;;;;10.75;6.38;;;21.40;99.90;;;;;;5032504;28;20455;-83
2023/09/10 09:25:09;;;;;;;8.40;5.72;;;21.40;99.90;;;;;;5032977;28;20029;-83
2023/09/10 09:27:36;;;;;;;8.65;6.18;;;21.50;99.90;;;;;;5032165;28;20029;-82
2023/09/10 09:30:06;;;;;;;8.90;6.15;;;21.50;99.90;;;;;;5034142;28;20025;-83
2023/09/10 09:32:37;;;;;;;7.63;5.70;;;21.50;99.90;;;;;;5051834;28;20028;-84
2023/09/10 09:35:10;;;;;;;8.37;6.00;;;21.60;99.90;;;;;;5053524;28;20285;-82
2023/09/10 09:37:36;;;;;;;8.82;6.07;;;21.70;99.90;;;;;;5034684;28;20034;-84
2023/09/10 09:40:11;;;;;;;10.88;5.85;;;21.70;99.90;;;;;;5033345;28;20459;-84
2023/09/10 09:42:37;;;;;;;7.35;5.68;;;21.80;99.90;;;;;;5040819;28;20450;-84
2023/09/10 09:45:03;;;;;;;11.40;5.78;;;21.80;99.90;;;;;;5056093;28;20083;-83
2023/09/10 09:47:30;;;;;;;9.60;6.05;;;21.80;99.90;;;;;;5043039;28;20032;-83
2023/09/10 09:49:57;;;;;;;9.18;6.10;;;21.80;99.90;;;;;;5057966;28;20082;-83
2023/09/10 09:52:23;;;;;;;10.88;5.72;;;21.80;99.90;;;;;;5094189;28;20027;-85
2023/09/10 09:54:48;;;;;;;9.57;5.75;;;21.90;99.90;;;;;;5056869;28;20379;-85
2023/09/10 09:57:17;;;;;;;8.25;5.88;;;22.00;99.90;;;;;;5056631;28;20108;-86
2023/09/10 09:59:43;;;;;;;8.80;5.55;;;22.00;99.90;;;;;;5073143;28;20119;-85
2023/09/10 10:02:14;;;;;;;10.48;6.30;;;22.20;99.90;;;;;;5059024;28;20025;-84
2023/09/10 10:04:41;;;;;;;6.87;4.70;;;22.20;99.90;;;;;;5058995;28;20442;-85
2023/09/10 10:07:08;;;;;;;7.28;5.53;;;22.30;99.90;;;;;;5058934;28;20020;-85
2023/09/10 10:09:40;;;;;;;9.93;5.68;;;22.30;99.90;;;;;;5057129;28;20035;-85
2023/09/10 10:12:07;;;;;;;8.52;6.00;;;22.40;99.90;;;;;;5058203;28;20119;-85
2023/09/10 10:14:33;;;;;;;7.30;5.63;;;22.50;99.90;;;;;;5075386;28;20029;-85
2023/09/10 10:17:04;;;;;;;9.75;6.00;;;22.50;99.90;;;;;;5076162;28;20117;-85
2023/09/10 10:19:31;;;;;;;8.23;5.40;;;22.70;99.90;;;;;;5058092;28;20178;-88
2023/09/10 10:21:57;;;;;;;10.40;6.03;;;22.80;99.90;;;;;;5057481;28;20546;-80
2023/09/10 10:24:23;;;;;;;6.55;4.55;;;22.90;99.90;;;;;;5065231;28;20028;-83
2023/09/10 10:26:49;;;;;;;8.50;4.72;;;23.00;99.90;;;;;;5084609;28;20020;-82
2023/09/10 10:29:17;;;;;;;8.57;5.70;;;23.00;99.90;;;;;;5058168;28;20032;-91
2023/09/10 10:31:47;;;;;;;8.02;5.70;;;23.10;99.90;;;;;;5076434;28;20074;-87
2023/09/10 10:34:23;;;;;;;7.60;5.57;;;23.20;99.90;;;;;;5084077;28;20118;-89
2023/09/10 10:37:14;;;;;;;7.68;4.97;;;23.20;99.90;;;;;;5058393;28;20029;-92
2023/09/10 10:40:10;;;;;;;6.90;5.07;;;23.20;99.90;;;;;;5059010;28;20090;-89
2023/09/10 10:42:46;;;;;;;6.63;5.05;;;23.20;99.90;;;;;;5075528;28;20117;-90
2023/09/10 10:45:15;;;;;;;7.68;5.25;;;23.20;99.90;;;;;;5072430;28;20043;-90
2023/09/10 10:47:42;;;;;;;7.38;5.35;;;23.30;99.90;;;;;;5076648;28;20035;-90
2023/09/10 10:50:12;;;;;;;7.03;5.13;;;23.30;99.90;;;;;;5057676;28;20053;-90
2023/09/10 10:52:44;;;;;;;5.97;4.78;;;23.40;99.90;;;;;;5057606;28;20032;-90
2023/09/10 10:55:11;;;;;;;8.32;4.72;;;23.50;99.90;;;;;;5057158;28;20028;-90
2023/09/10 10:57:37;;;;;;;7.10;4.50;;;23.50;99.90;;;;;;5074845;28;20017;-90
2023/09/10 11:00:07;;;;;;;8.45;5.00;;;23.50;99.90;;;;;;5075497;28;20040;-90
2023/09/10 11:02:32;;;;;;;7.85;4.85;;;23.60;99.90;;;;;;5057574;28;20028;-89
2023/09/10 11:05:01;;;;;;;8.00;5.20;;;23.70;99.90;;;;;;5057866;28;20046;-90
2023/09/10 11:07:29;;;;;;;7.13;5.13;;;23.80;99.90;;;;;;5058071;28;20029;-90
2023/09/10 11:10:15;;;;;;;5.45;4.80;;;23.80;99.90;;;;;;5077455;28;20032;-91
2023/09/10 11:13:04;;;;;;;7.07;4.60;;;23.90;99.90;;;;;;5071508;28;20044;-88
2023/09/10 11:15:30;;;;;;;6.43;4.45;;;24.30;99.90;;;;;;5057393;28;20021;-91
2023/09/10 11:18:34;;;;;;;7.25;4.18;;;24.40;99.90;;;;;;5093283;28;20035;-90
2023/09/10 11:21:01;;;;;;;7.55;4.18;;;24.40;99.90;;;;;;5063652;28;20101;-88
2023/09/10 11:23:26;;;;;;;7.43;4.28;;;24.30;99.90;;;;;;5080179;28;20047;-90
2023/09/10 11:25:52;;;;;;;6.18;4.10;;;24.40;99.90;;;;;;5068712;28;20032;-83
2023/09/10 11:28:56;;;;;;;5.50;3.83;;;24.40;99.90;;;;;;5082863;28;20028;-85
2023/09/10 11:31:40;;;;;;;7.60;3.70;;;24.40;99.90;;;;;;5060116;28;20115;-86
2023/09/10 11:34:18;;;;;;;6.72;3.60;;;24.40;99.90;;;;;;5060743;28;20024;-82
2023/09/10 11:37:05;;;;;;;5.97;3.67;;;24.50;99.90;;;;;;5063815;28;20031;-84
2023/09/10 11:39:32;;;;;;;5.60;3.58;;;24.70;99.90;;;;;;5061573;28;20028;-84
2023/09/10 11:42:03;;;;;;;5.80;3.60;;;24.80;99.90;;;;;;5081369;28;20130;-84
2023/09/10 11:44:29;;;;;;;8.63;4.05;;;24.80;99.90;;;;;;5060628;28;20131;-82
2023/09/10 11:46:55;;;;;;;5.70;3.63;;;24.80;99.90;;;;;;5088814;28;20524;-83
2023/09/10 11:49:22;;;;;;;6.43;3.53;;;24.80;99.40;;;;;;5076536;28;20102;-85
2023/09/10 11:51:50;;;;;;;8.40;3.42;;;24.90;99.10;;;;;;5081131;28;20032;-83
2023/09/10 11:54:17;;;;;;;7.15;3.20;;;24.80;99.40;;;;;;5065970;28;20424;-88
2023/09/10 11:56:45;;;;;;;7.13;3.45;;;24.90;98.80;;;;;;5087427;28;20024;-88
2023/09/10 11:59:12;;;;;;;6.40;3.63;;;24.90;99.20;;;;;;5083635;28;20044;-86
2023/09/10 12:01:39;;;;;;;4.78;3.53;;;24.90;99.40;;;;;;5062679;28;20024;-85
2023/09/10 12:04:04;;;;;;;6.07;3.67;;;25.10;99.30;;;;;;5066017;28;20078;-86
2023/09/10 12:06:30;;;;;;;7.15;3.78;;;25.20;99.00;;;;;;5064962;28;20059;-83
2023/09/10 12:08:55;;;;;;;4.85;3.83;;;25.30;98.50;;;;;;5066679;28;20528;-79
2023/09/10 12:11:22;;;;;;;6.80;3.63;;;25.50;98.80;;;;;;5061680;28;20173;-81
2023/09/10 12:13:48;;;;;;;6.05;3.60;;;25.70;98.70;;;;;;5067148;28;20028;-80
2023/09/10 12:16:14;;;;;;;4.53;3.45;;;25.80;98.10;;;;;;5069409;28;20104;-80
2023/09/10 12:18:40;;;;;;;6.03;3.60;;;25.90;98.10;;;;;;5063922;28;20028;-80
2023/09/10 12:21:06;;;;;;;5.75;3.60;;;26.00;97.90;;;;;;5069730;28;20036;-80
2023/09/10 12:23:32;;;;;;;6.03;4.50;;;26.00;97.80;;;;;;5078769;28;20027;-81
2023/09/10 12:25:59;;;;;;;5.00;3.67;;;26.20;96.60;;;;;;5063198;28;20081;-79
2023/09/10 12:28:25;;;;;;;8.40;3.90;;;26.50;96.70;;;;;;5055779;28;20060;-81
2023/09/10 12:30:52;;;;;;;5.13;3.55;;;26.60;96.90;;;;;;5059883;28;20032;-82
2023/09/10 12:33:20;;;;;;;3.78;3.13;;;26.70;95.90;;;;;;5065276;28;20029;-89
2023/09/10 12:35:46;;;;;;;5.40;3.17;;;26.90;95.50;;;;;;5062988;28;20103;-83
2023/09/10 12:38:15;;;;;;;4.75;3.10;;;27.00;94.80;;;;;;5063085;28;20040;-84
2023/09/10 12:40:42;;;;;;;5.68;3.38;;;27.10;94.20;;;;;;5070054;28;20090;-82
2023/09/10 12:43:08;;;;;;;5.05;3.30;;;27.40;94.10;;;;;;5062030;28;20056;-82